Flight Track Log - Related Links

Times and Time Zones

All times are in EST time to prevent confusion due to time zone crossing. See the CES736 flight status page for this flight to view local times or setup timezone preferences in your user account.


Time Position Orientation Groundspeed Altitude Reporting Facility
EST Latitude Longitude Course Direction KTS MPH feet Rate Location/Type
Sat 05:32:12 AM -33.9602 151.1796 167° South 165 190 300  Level FlightAware ADS-B
Sat 05:32:28 AM -33.9724 151.1817 177° South 176 203 1,000 2,143 Climbing FlightAware ADS-B
Sat 05:32:40 AM -33.9829 151.1817 177° South 176 203 1,300 1,500 Climbing FlightAware ADS-B
Sat 05:32:48 AM -33.9884 151.1810 186° South 185 213 1,500 1,714 Climbing FlightAware ADS-B (KCLL)
Sat 05:33:08 AM -34.0064 151.1777 189° South 182 209 2,100 1,714 Climbing FlightAware ADS-B
Sat 05:33:23 AM -34.0199 151.1759 186° South 194 223 2,500 1,800 Climbing FlightAware ADS-B
Sat 05:33:28 AM -34.0249 151.1758 181° South 194 223 2,700 2,000 Climbing FlightAware ADS-B
Sat 05:33:38 AM -34.0331 151.1776 165° South 186 214 3,000 1,385 Climbing FlightAware ADS-B
Sat 05:33:54 AM -34.0476 151.1823 165° South 203 234 3,300 1,091 Climbing FlightAware ADS-B
Sat 05:34:22 AM -34.0752 151.1914 165° South 244 281 3,800 900 Climbing FlightAware ADS-B
Sat 05:34:34 AM -34.0882 151.1957 164° South 254 292 3,900 2,229 Climbing FlightAware ADS-B
Sat 05:34:57 AM -34.1162 151.2049 165° South 262 302 5,100 3,273 Climbing FlightAware ADS-B (KCLL)
Sat 05:35:07 AM -34.1276 151.2088 164° South 261 300 5,700 3,091 Climbing FlightAware ADS-B
Sat 05:35:30 AM -34.1368 151.2119 166° South 262 302 6,800 2,400 Climbing FlightAware ADS-B
Sat 05:35:42 AM -34.1368 151.2119 198° South 274 315 7,100 1,909 Climbing FlightAware ADS-B
Sat 05:35:52 AM -34.1797 151.2016 225° Southwest 273 314 7,500 2,625 Climbing FlightAware ADS-B
Sat 05:35:58 AM -34.1837 151.1958 234° Southwest 281 323 7,800 2,727 Climbing FlightAware ADS-B (KCLL)
Sat 05:36:03 AM -34.1879 151.1871 243° Southwest 283 326 8,000 2,400 Climbing FlightAware ADS-B
Sat 05:36:08 AM -34.1902 151.1799 248° West 285 328 8,200 2,211 Climbing FlightAware ADS-B
Sat 05:36:22 AM -34.1913 151.1599 280° West 295 339 8,700 2,308 Climbing FlightAware ADS-B
Sat 05:36:34 AM -34.1845 151.1397 297° West 297 342 9,200 2,727 Climbing FlightAware ADS-B
Sat 05:36:44 AM -34.1752 151.1282 320° Northwest 299 344 9,700 1,950 Climbing FlightAware ADS-B
Sat 05:37:14 AM -34.1390 151.0994 328° Northwest 321 369 10,500 1,655 Climbing FlightAware ADS-B
Sat 05:37:42 AM -34.1026 151.0708 327° Northwest 332 382 11,300 2,372 Climbing FlightAware ADS-B
Sat 05:37:57 AM -34.1026 151.0708 326° Northwest 341 392 12,200 3,000 Climbing FlightAware ADS-B
Sat 05:38:32 AM -34.0355 151.0199 335° Northwest 341 392 13,800 2,667 Climbing FlightAware ADS-B
Sat 05:39:09 AM -33.9835 150.9964 343° North 345 397 15,400 2,382 Climbing FlightAware ADS-B (KCLL)
Sat 05:39:40 AM -33.9337 150.9784 344° North 352 405 16,500 2,164 Climbing FlightAware ADS-B
Sat 05:40:10 AM -33.8866 150.9618 343° North 358 412 17,600 2,149 Climbing FlightAware ADS-B (KCLL)
Sat 05:40:47 AM -33.8269 150.9402 343° North 364 419 18,900 1,862 Climbing FlightAware ADS-B
Sat 05:41:08 AM -33.7918 150.9276 344° North 370 426 19,400 1,789 Climbing FlightAware ADS-B
Sat 05:41:44 AM -33.7324 150.9068 344° North 373 429 20,600 2,083 Climbing FlightAware ADS-B
Sat 05:42:20 AM -33.6725 150.8862 344° North 383 441 21,900 2,029 Climbing FlightAware ADS-B (YRAY)
Sat 05:42:52 AM -33.6176 150.8660 340° North 382 440 22,900 1,837 Climbing FlightAware ADS-B
Sat 05:43:09 AM -33.5924 150.8501 327° Northwest 384 442 23,400 1,472 Climbing FlightAware ADS-B (YRAY)
Sat 05:43:45 AM -33.5389 150.8021 322° Northwest 395 455 24,200 1,543 Climbing FlightAware ADS-B
Sat 05:44:19 AM -33.4886 150.7568 324° Northwest 399 459 25,200 1,562 Climbing FlightAware ADS-B (KCLL)
Sat 05:44:58 AM -33.4274 150.7040 324° Northwest 390 449 26,100 1,000 Climbing Aus ATC (RADAR)
Sat 05:45:01 AM -33.4263 150.7029 324° Northwest 412 474 25,900 429 Descending FlightAware ADS-B (YRAY)
Sat 05:45:40 AM -33.3407 150.6290 324° Northwest 440 506 26,400 659 Climbing FlightAware ADS-B (YPLB)
Sat 05:46:23 AM -33.2920 150.5871 324° Northwest 451 519 26,800 1,350 Climbing FlightAware ADS-B (KCLL)
Sat 05:47:00 AM -33.2343 150.5375 324° Northwest 440 506 28,200 1,826 Climbing FlightAware ADS-B
Sat 05:47:32 AM -33.1742 150.4865 324° Northwest 438 504 28,900 1,000 Climbing Aus ATC (RADAR)
Sat 05:47:48 AM -33.1577 150.4719 324° Northwest 449 517 29,000 1,472 Climbing FlightAware ADS-B (YRAY)
Sat 05:48:25 AM -33.0888 150.4129 324° Northwest 441 507 30,200 1,890 Climbing FlightAware ADS-B (KCLL)
Sat 05:49:01 AM -33.0065 150.3427 324° Northwest 438 504 31,300 1,184 Climbing FlightAware ADS-B (YPLB)
Sat 05:49:41 AM -32.9385 150.2847 324° Northwest 445 512 31,700 511 Climbing FlightAware ADS-B (YPLB)
Sat 05:49:48 AM -32.9478 150.2932 324° Northwest 431 496 31,700 1,143 Level Aus ATC (RADAR)
Sat 05:50:23 AM -32.8893 150.2435 324° Northwest 431 496 32,500 977 Climbing Aus ATC (RADAR)
Sat 05:50:31 AM -32.8797 150.2348 324° Northwest 442 509 32,400 1,224 Descending FlightAware ADS-B (KCLL)
Sat 05:51:12 AM -32.7894 150.1583 324° Northwest 436 502 33,500 1,019 Climbing FlightAware ADS-B (YPLB)
Sat 05:52:17 AM -32.7025 150.0849 324° Northwest 432 497 34,200 353 Climbing Aus ATC (RADAR)
Sat 05:52:37 AM -32.6716 150.0587 325° Northwest 440 506 34,000  Descending FlightAware ADS-B (KCLL)
Sat 05:53:18 AM -32.6009 149.9998 325° Northwest 429 494 34,200  Climbing Aus ATC (RADAR)
Sat 05:53:38 AM -32.5697 149.9728 325° Northwest 438 504 34,000 -86 Descending FlightAware ADS-B (KCLL)
Sat 05:54:28 AM -32.4859 149.9026 325° Northwest 426 490 34,100  Climbing Aus ATC (RADAR)
Sat 05:54:39 AM -32.4697 149.8886 325° Northwest 435 501 34,000 -83 Descending FlightAware ADS-B (KCLL)
Sat 05:55:40 AM -32.3698 149.8048 325° Northwest 435 501 34,000 64 Level FlightAware ADS-B (KCLL)
Sat 05:56:13 AM -32.3134 149.7583 325° Northwest 428 493 34,100  Climbing Aus ATC (RADAR)
Sat 05:56:41 AM -32.2686 149.7201 325° Northwest 435 501 34,000  Descending FlightAware ADS-B (KCLL)
Sat 05:57:32 AM -32.1819 149.6485 325° Northwest 428 493 34,100  Climbing Aus ATC (RADAR)
Sat 05:57:41 AM -32.1713 149.6391 325° Northwest 437 503 34,000  Descending FlightAware ADS-B (KCLL)
Sat 05:58:37 AM -32.0749 149.5592 325° Northwest 428 493 34,100  Climbing Aus ATC (RADAR)
Sat 05:58:42 AM -32.0699 149.5547 325° Northwest 438 504 34,000  Descending FlightAware ADS-B (KCLL)
Sat 05:59:17 AM -32.0089 149.5044 325° Northwest 428 493 34,100  Climbing Aus ATC (RADAR)
Sat 05:59:29 AM -32.0527 149.5404 325° Northwest 438 504 34,000  Descending FlightAware ADS-B (KCLL)
Sat 06:00:22 AM -31.9008 149.4153 325° Northwest 432 497 34,100 65 Climbing Aus ATC (RADAR)
Sat 06:01:02 AM -31.8346 149.3603 325° Northwest 431 496 34,100 81 Level Aus ATC (RADAR)
Sat 06:01:36 AM -31.7788 149.3144 325° Northwest 435 501 34,200 514 Climbing Aus ATC (RADAR)
Sat 06:02:12 AM -31.7186 149.2648 325° Northwest 428 493 34,700 960 Climbing Aus ATC (RADAR)
Sat 06:02:51 AM -31.6543 149.2118 325° Northwest 433 498 35,400 1,029 Climbing Aus ATC (RADAR)
Sat 06:03:22 AM -31.6032 149.1700 325° Northwest 426 490 35,900 676 Climbing Aus ATC (RADAR)
Sat 06:04:02 AM -31.5373 149.1161 325° Northwest 426 490 36,200 162 Climbing Aus ATC (RADAR)
Sat 06:04:36 AM -31.4812 149.0701 325° Northwest 433 498 36,100 -92 Descending Aus ATC (RADAR)
Sat 06:05:07 AM -31.4300 149.0285 325° Northwest 427 491 36,100  Level Aus ATC (RADAR)
Sat 06:05:46 AM -31.3667 148.9766 325° Northwest 428 493 36,100 86 Level Aus ATC (RADAR)
Sat 06:06:17 AM -31.3160 148.9356 325° Northwest 422 486 36,200 86 Climbing Aus ATC (RADAR)
Sat 06:06:56 AM -31.2528 148.8840 325° Northwest 426 490 36,200  Level Aus ATC (RADAR)
Sat 06:07:41 AM -31.1799 148.8245 325° Northwest 426 490 36,200  Level Aus ATC (RADAR)
Sat 06:08:01 AM -31.1456 148.7969 325° Northwest 421 484 36,200  Level Aus ATC (RADAR)
Sat 06:08:41 AM -31.0802 148.7441 325° Northwest 423 487 36,200  Level Aus ATC (RADAR)
Sat 06:09:11 AM -31.0319 148.7048 325° Northwest 420 483 36,200  Level Aus ATC (RADAR)
Sat 06:09:46 AM -30.9747 148.6589 325° Northwest 420 483 36,200  Level Aus ATC (RADAR)
Sat 06:10:21 AM -30.9180 148.6132 325° Northwest 420 483 36,200  Level Aus ATC (RADAR)
Sat 06:10:56 AM -30.8611 148.5674 325° Northwest 422 486 36,200 -162 Level Aus ATC (RADAR)
Sat 06:11:35 AM -30.7983 148.5168 325° Northwest 424 488 36,000 -171 Descending Aus ATC (RADAR)
Sat 06:12:06 AM -30.7480 148.4774 326° Northwest 418 481 36,000  Level Aus ATC (RADAR)
Sat 06:13:05 AM -30.6536 148.4009 325° Northwest 421 484 36,000  Level Aus ATC (RADAR)
Sat 06:13:36 AM -30.6035 148.3609 326° Northwest 417 480 36,000  Level Aus ATC (RADAR)
Sat 06:14:11 AM -30.5471 148.3160 326° Northwest 417 480 36,000  Level Aus ATC (RADAR)
Sat 06:14:46 AM -30.4906 148.2711 326° Northwest 418 481 36,000  Level Aus ATC (RADAR)
Sat 06:15:21 AM -30.4342 148.2260 325° Northwest 417 480 36,000  Level Aus ATC (RADAR)
Sat 06:15:51 AM -30.3854 148.1874 326° Northwest 419 482 36,000  Level Aus ATC (RADAR)
Sat 06:16:31 AM -30.3215 148.1358 325° Northwest 416 479 36,000  Level Aus ATC (RADAR)
Sat 06:17:01 AM -30.2758 148.0971 324° Northwest 409 471 36,000  Level Aus ATC (RADAR)
Sat 06:17:51 AM -30.1972 148.0321 324° Northwest 411 473 36,000  Level Aus ATC (RADAR)
Sat 06:18:11 AM -30.1652 148.0062 325° Northwest 413 475 36,000  Level Aus ATC (RADAR)
Sat 06:18:40 AM -30.1173 147.9674 325° Northwest 414 476 36,000  Level Aus ATC (RADAR)
Sat 06:19:15 AM -30.0592 147.9224 326° Northwest 419 482 36,000  Level Aus ATC (RADAR)
Sat 06:19:50 AM -30.0010 147.8773 326° Northwest 423 487 36,000  Level Aus ATC (RADAR)
Sat 06:20:25 AM -29.9434 147.8322 326° Northwest 424 488 36,000  Level Aus ATC (RADAR)
Sat 06:20:55 AM -29.8938 147.7939 326° Northwest 424 488 36,000  Level Aus ATC (RADAR)
Sat 06:21:35 AM -29.8285 147.7430 326° Northwest 423 487 36,000  Level Aus ATC (RADAR)
Sat 06:22:05 AM -29.7798 147.7048 326° Northwest 422 486 36,000  Level Aus ATC (RADAR)
Sat 06:22:50 AM -29.7062 147.6474 326° Northwest 421 484 36,000  Level Aus ATC (RADAR)
Sat 06:23:20 AM -29.6574 147.6094 326° Northwest 421 484 36,000  Level Aus ATC (RADAR)
Sat 06:23:55 AM -29.6008 147.5651 326° Northwest 420 483 36,000  Level Aus ATC (RADAR)
Sat 06:24:25 AM -29.5526 147.5271 326° Northwest 419 482 36,000  Level Aus ATC (RADAR)
Sat 06:25:05 AM -29.4879 147.4767 326° Northwest 419 482 36,000  Level Aus ATC (RADAR)
Sat 06:25:25 AM -29.4561 147.4515 326° Northwest 419 482 36,000 14 Level Aus ATC (RADAR)
Sat 06:27:45 AM -29.2411 147.2854 323° Northwest 36,000 14 Level Aus ATC (Calculated)
Sat 06:29:00 AM -29.3635 147.3766 147° Southeast  Level FlightAware Approximate
Sat 06:30:00 AM -29.4613 147.4498 147° Southeast  Level FlightAware Approximate
Sat 06:30:06 AM -28.9811 147.0857 323° Northwest 36,000  Level Aus ATC (Calculated)
Sat 06:32:00 AM -28.7782 146.9834 316° Northwest  Level Estimated
Sat 06:32:40 AM -28.6964 146.8684 323° Northwest 36,000  Level Aus ATC (Calculated)
Sat 06:33:00 AM -28.8791 147.0504 150° Southeast  Level FlightAware Approximate
Sat 06:34:00 AM -28.8302 146.9590 149° Southeast  Level FlightAware Approximate
Sat 06:35:00 AM -28.9305 147.0272 149° Southeast  Level FlightAware Approximate
Sat 06:36:00 AM -29.0308 147.0955 149° Southeast  Level FlightAware Approximate
Sat 06:37:00 AM -29.1311 147.1640 149° Southeast  Level FlightAware Approximate
Sat 06:37:39 AM -28.1668 146.4680 323° Northwest 36,000  Level Aus ATC (Calculated)
Sat 06:38:00 AM -29.2314 147.2325 149° Southeast  Level FlightAware Approximate
Sat 06:39:00 AM -28.3021 146.5599 149° Southeast  Level FlightAware Approximate
Sat 06:40:00 AM -28.1950 146.5070 333° Northwest  Level Estimated
Sat 06:41:00 AM -28.2880 146.5872 143° Southeast  Level FlightAware Approximate
Sat 06:42:00 AM -28.3809 146.6676 143° Southeast  Level FlightAware Approximate
Sat 06:42:39 AM -27.5969 146.0424 323° Northwest 36,000  Level Aus ATC (Calculated)
Sat 06:43:00 AM -28.4737 146.7481 143° Southeast  Level FlightAware Approximate
Sat 06:44:00 AM -27.7237 146.1481 144° Southeast  Level FlightAware Approximate
Sat 06:45:00 AM -27.8177 146.2265 144° Southeast  Level FlightAware Approximate
Sat 06:46:00 AM -27.9115 146.3050 144° Southeast  Level FlightAware Approximate
Sat 06:47:00 AM -28.0054 146.3837 143° Southeast  Level FlightAware Approximate
Sat 06:47:38 AM -27.0880 145.6390 323° Northwest 36,000  Level Aus ATC (Calculated)
Sat 06:48:14 AM -27.0179 145.5839 323° Northwest 36,000 16 Level Aus ATC (Calculated)
Sat 06:48:43 AM -26.9522 145.5322 323° Northwest 36,000 16 Level Aus ATC (Calculated)
Sat 06:50:00 AM -27.0735 145.6309 144° Southeast  Level FlightAware Approximate
Sat 06:50:35 AM -26.7673 145.3872 323° Northwest 36,000  Level Aus ATC (Calculated)
Sat 06:51:38 AM -26.6670 145.3088 323° Northwest 36,000 17 Level Aus ATC (Calculated)
Sat 06:53:00 AM -26.7965 145.4133 144° Southeast  Level FlightAware Approximate
Sat 06:54:00 AM -26.8912 145.4898 144° Southeast  Level FlightAware Approximate
Sat 06:55:00 AM -26.9859 145.5665 144° Southeast  Level FlightAware Approximate
Sat 06:56:00 AM -27.0805 145.6433 144° Southeast  Level FlightAware Approximate
Sat 06:56:38 AM -26.1841 144.9337 323° Northwest 36,000  Level Aus ATC (Calculated)
Sat 06:58:00 AM -26.3140 145.0370 145° Southeast  Level FlightAware Approximate
Sat 06:59:00 AM -26.4090 145.1127 144° Southeast  Level FlightAware Approximate
Sat 07:00:00 AM -26.5040 145.1886 144° Southeast  Level FlightAware Approximate
Sat 07:00:42 AM -25.8050 144.6387 323° Northwest 36,000  Level Aus ATC (Calculated)
Sat 07:01:00 AM -26.5989 145.2645 144° Southeast  Level FlightAware Approximate
Sat 07:02:00 AM -25.9288 144.7362 145° Southeast  Level FlightAware Approximate
Sat 07:03:00 AM -26.0240 144.8114 145° Southeast  Level FlightAware Approximate
Sat 07:03:52 AM -25.4861 144.3887 323° Northwest 36,000  Level Aus ATC (Calculated)
Sat 07:04:00 AM -26.1192 144.8867 145° Southeast  Level FlightAware Approximate
Sat 07:05:00 AM -25.5942 144.4733 145° Southeast  Level FlightAware Approximate
Sat 07:05:42 AM -25.2733 144.2228 323° Northwest 36,000  Level Aus ATC (Calculated)
Sat 07:06:00 AM -25.6896 144.5480 145° Southeast  Level FlightAware Approximate
Sat 07:07:00 AM -25.1327 144.1599 323° Northwest  Level Estimated
Sat 07:08:00 AM -25.2287 144.2333 145° Southeast  Level FlightAware Approximate
Sat 07:09:00 AM -25.3246 144.3069 145° Southeast  Level FlightAware Approximate
Sat 07:10:00 AM -25.4205 144.3806 145° Southeast  Level FlightAware Approximate
Sat 07:10:41 AM -24.7939 143.8517 324° Northwest 36,000  Level Aus ATC (Calculated)
Sat 07:12:00 AM -24.9198 143.9488 145° Southeast  Level FlightAware Approximate
Sat 07:13:00 AM -25.0154 144.0228 145° Southeast  Level FlightAware Approximate
Sat 07:14:00 AM -25.1110 144.0968 145° Southeast  Level FlightAware Approximate
Sat 07:15:00 AM -25.2065 144.1709 145° Southeast  Level FlightAware Approximate
Sat 07:15:41 AM -24.3134 143.4833 324° Northwest 36,000  Level Aus ATC (Calculated)
Sat 07:16:00 AM -25.3020 144.2452 145° Southeast  Level FlightAware Approximate
Sat 07:17:00 AM -24.4396 143.5797 145° Southeast  Level FlightAware Approximate
Sat 07:17:46 AM -24.0498 143.2827 324° Northwest 36,000  Level Aus ATC (Calculated)
Sat 07:18:00 AM -24.5354 143.6531 145° Southeast  Level FlightAware Approximate
Sat 07:19:00 AM -23.9158 143.2250 323° Northwest  Level Estimated
Sat 07:20:00 AM -24.0123 143.2969 146° Southeast  Level FlightAware Approximate
Sat 07:21:00 AM -24.1088 143.3689 146° Southeast  Level FlightAware Approximate
Sat 07:22:00 AM -24.2052 143.4410 146° Southeast  Level FlightAware Approximate
Sat 07:22:45 AM -23.5586 142.9115 324° Northwest 36,000  Level Aus ATC (Calculated)
Sat 07:23:00 AM -24.3016 143.5132 146° Southeast  Level FlightAware Approximate
Sat 07:24:00 AM -23.6787 143.0020 145° Southeast  Level FlightAware Approximate
Sat 07:25:00 AM -23.7748 143.0745 145° Southeast  Level FlightAware Approximate
Sat 07:26:00 AM -23.8708 143.1471 145° Southeast  Level FlightAware Approximate
Sat 07:27:00 AM -23.9668 143.2198 145° Southeast  Level FlightAware Approximate
Sat 07:27:45 AM -22.9961 142.4908 324° Northwest 36,000  Level Aus ATC (Calculated)
Sat 07:28:00 AM -24.0628 143.2926 145° Southeast  Level FlightAware Approximate
Sat 07:29:00 AM -23.1165 142.5804 146° Southeast  Level FlightAware Approximate
Sat 07:30:00 AM -23.2127 142.6523 146° Southeast  Level FlightAware Approximate
Sat 07:31:00 AM -23.3090 142.7243 146° Southeast  Level FlightAware Approximate
Sat 07:32:00 AM -23.4052 142.7964 145° Southeast  Level FlightAware Approximate
Sat 07:32:45 AM -22.4325 142.0734 324° Northwest 36,000  Level Aus ATC (Calculated)
Sat 07:33:00 AM -23.5013 142.8685 145° Southeast  Level FlightAware Approximate
Sat 07:34:00 AM -22.5531 142.1624 146° Southeast  Level FlightAware Approximate
Sat 07:34:39 AM -22.2914 141.9696 324° Northwest 36,000  Level Aus ATC (Calculated)
Sat 07:35:00 AM -22.6495 142.2337 146° Southeast  Level FlightAware Approximate
Sat 07:36:00 AM -22.4217 142.0655 146° Southeast  Level FlightAware Approximate
Sat 07:36:19 AM -22.0796 141.8143 324° Northwest 36,000  Level Aus ATC (Calculated)
Sat 07:38:00 AM -21.8956 141.7399 324° Northwest  Level Estimated
Sat 07:38:09 AM -21.8908 141.6763 324° Northwest 36,000  Level Aus ATC (Calculated)
Sat 07:39:34 AM -21.7134 141.5471 324° Northwest 36,000 28 Level Aus ATC (Calculated)
Sat 07:41:00 AM -21.8520 141.6480 146° Southeast  Level FlightAware Approximate
Sat 07:42:00 AM -21.9487 141.7186 146° Southeast  Level FlightAware Approximate
Sat 07:42:43 AM -21.3583 141.2895 324° Northwest 36,000  Level Aus ATC (Calculated)
Sat 07:43:00 AM -22.0453 141.7892 146° Southeast  Level FlightAware Approximate
Sat 07:44:00 AM -21.4825 141.3795 146° Southeast  Level FlightAware Approximate
Sat 07:44:34 AM -21.1806 141.1612 324° Northwest 36,000  Level Aus ATC (Calculated)
Sat 07:45:00 AM -21.5793 141.4497 146° Southeast  Level FlightAware Approximate
Sat 07:46:00 AM -21.3194 141.2615 146° Southeast  Level FlightAware Approximate
Sat 07:47:00 AM -21.4163 141.3315 146° Southeast  Level FlightAware Approximate
Sat 07:48:00 AM -21.5131 141.4016 146° Southeast  Level FlightAware Approximate
Sat 07:48:35 AM -20.7062 140.8206 324° Northwest 36,000  Level Aus ATC (Calculated)
Sat 07:49:00 AM -21.6099 141.4719 146° Southeast  Level FlightAware Approximate
Sat 07:49:33 AM -20.5875 140.7357 324° Northwest 36,000  Level Aus ATC (Calculated)
Sat 07:50:00 AM -20.5507 140.7604 325° Northwest  Level Estimated
Sat 07:51:00 AM -20.7282 140.8363 146° Southeast  Level FlightAware Approximate
Sat 07:52:00 AM -20.8252 140.9058 146° Southeast  Level FlightAware Approximate
Sat 07:53:00 AM -20.9222 140.9754 146° Southeast  Level FlightAware Approximate
Sat 07:54:00 AM -21.0192 141.0450 146° Southeast  Level FlightAware Approximate
Sat 07:54:33 AM -20.0534 140.3498 324° Northwest 36,000  Level Aus ATC (Calculated)
Sat 07:56:00 AM -20.1943 140.4498 146° Southeast  Level FlightAware Approximate
Sat 07:57:00 AM -20.2913 140.5189 146° Southeast  Level FlightAware Approximate
Sat 07:57:51 AM -19.7000 140.0633 324° Northwest 36,000  Level Aus ATC (Calculated)
Sat 07:58:00 AM -20.3884 140.5881 146° Southeast  Level FlightAware Approximate
Sat 07:59:00 AM -19.8114 140.1429 146° Southeast  Level FlightAware Approximate
Sat 08:00:00 AM -19.9083 140.2121 146° Southeast  Level FlightAware Approximate
Sat 08:00:55 AM -19.3461 139.7780 324° Northwest 36,000  Level Aus ATC (Calculated)
Sat 08:01:00 AM -20.0052 140.2815 146° Southeast  Level FlightAware Approximate
Sat 08:02:00 AM -19.4508 139.8531 146° Southeast  Level FlightAware Approximate
Sat 08:02:17 AM -19.1689 139.6358 324° Northwest 36,000  Level Aus ATC (Calculated)
Sat 08:04:00 AM -19.3349 139.7549 146° Southeast  Level FlightAware Approximate
Sat 08:05:00 AM -19.4315 139.8244 146° Southeast  Level FlightAware Approximate
Sat 08:06:00 AM -19.5281 139.8940 146° Southeast  Level FlightAware Approximate
Sat 08:06:34 AM -18.6960 139.2582 324° Northwest 36,000  Level Aus ATC (Calculated)
Sat 08:07:17 AM -18.6369 139.2111 324° Northwest 36,000 49 Level Aus ATC (Calculated)
Sat 08:08:00 AM -18.8344 139.3577 146° Southeast  Level FlightAware Approximate
Sat 08:09:00 AM -18.4471 139.1429 325° Northwest  Level Estimated
Sat 08:10:00 AM -18.5437 139.2121 146° Southeast  Level FlightAware Approximate
Sat 08:10:46 AM -18.2223 138.8826 325° Northwest 36,000  Level Aus ATC (Calculated)
Sat 08:11:00 AM -18.6403 139.2813 146° Southeast  Level FlightAware Approximate
Sat 08:12:00 AM -18.3402 138.9697 145° Southeast  Level FlightAware Approximate
Sat 08:13:00 AM -18.4358 139.0404 145° Southeast  Level FlightAware Approximate
Sat 08:14:00 AM -18.5313 139.1113 145° Southeast  Level FlightAware Approximate
Sat 08:15:00 AM -18.6268 139.1821 145° Southeast  Level FlightAware Approximate
Sat 08:16:00 AM -18.7222 139.2531 145° Southeast  Level FlightAware Approximate
Sat 08:17:00 AM -18.8177 139.3241 145° Southeast  Level FlightAware Approximate
Sat 08:18:00 AM -18.9131 139.3953 145° Southeast  Level FlightAware Approximate
Sat 08:19:00 AM -19.0084 139.4665 145° Southeast  Level FlightAware Approximate
Sat 08:20:00 AM -19.1038 139.5378 145° Southeast  Level FlightAware Approximate
Sat 08:21:00 AM -19.1991 139.6091 145° Southeast  Level FlightAware Approximate
Sat 08:22:00 AM -19.2944 139.6806 145° Southeast  Level FlightAware Approximate
Sat 08:23:00 AM -19.3897 139.7521 145° Southeast  Level FlightAware Approximate
Sat 08:24:00 AM -19.4849 139.8237 145° Southeast  Level FlightAware Approximate
Sat 08:24:06 AM -16.7962 137.7673 326° Northwest 36,000  Level Aus ATC (Calculated)
Sat 08:26:00 AM -16.9774 137.9011 145° Southeast  Level FlightAware Approximate
Sat 08:27:00 AM -17.0727 137.9716 145° Southeast  Level FlightAware Approximate
Sat 08:28:00 AM -17.1680 138.0421 145° Southeast  Level FlightAware Approximate
Sat 08:29:00 AM -17.2633 138.1128 145° Southeast  Level FlightAware Approximate
Sat 08:29:00 AM -16.2598 137.3534 328° Northwest 36,000  Level Aus ATC (Calculated)
Sat 08:30:00 AM -16.3551 137.4236 145° Southeast  Level FlightAware Approximate
Sat 08:31:00 AM -16.2438 137.3869 326° Northwest  Level Estimated
Sat 08:32:00 AM -16.3382 137.4584 144° Southeast  Level FlightAware Approximate
Sat 08:33:00 AM -16.4326 137.5301 144° Southeast  Level FlightAware Approximate
Sat 08:33:59 AM -15.6777 136.9075 331° Northwest 36,000  Level Aus ATC (Calculated)
Sat 08:34:00 AM -16.5270 137.6017 144° Southeast  Level FlightAware Approximate
Sat 08:35:00 AM -15.7733 136.9806 144° Southeast  Level FlightAware Approximate
Sat 08:35:33 AM -15.5432 136.8050 333° Northwest 36,000  Level Aus ATC (Calculated)
Sat 08:36:36 AM -15.4087 136.7026 336° Northwest 36,000 192 Level Aus ATC (Calculated)
Sat 08:37:44 AM -15.2751 136.6010 342° North 36,000 214 Level Aus ATC (Calculated)
Sat 08:38:00 AM -15.5405 136.8029 144° Southeast  Level FlightAware Approximate
Sat 08:39:00 AM -15.3944 136.6917 144° Southeast  Level FlightAware Approximate
Sat 08:39:33 AM -15.0530 136.4326 24° Northeast 36,000  Level Aus ATC (Calculated)
Sat 08:40:00 AM -15.4885 136.7633 144° Southeast  Level FlightAware Approximate
Sat 08:41:00 AM -15.1896 136.5362 144° Southeast  Level FlightAware Approximate
Sat 08:42:00 AM -15.2838 136.6077 144° Southeast  Level FlightAware Approximate
Sat 08:42:39 AM -14.6974 136.1639 127° Southeast 36,000  Level Aus ATC (Calculated)
Sat 08:43:00 AM -15.3780 136.6793 144° Southeast  Level FlightAware Approximate
Sat 08:44:00 AM -14.8248 136.2600 144° Southeast  Level FlightAware Approximate
Sat 08:45:00 AM -14.9191 136.3313 144° Southeast  Level FlightAware Approximate
Sat 08:45:28 AM -14.9339 136.4882 144° Southeast 549 632 37,900  Level Aus ATC (RADAR)
Sat 08:46:38 AM -14.8139 136.3801 319° Northwest 503 579 37,900  Level Aus ATC (RADAR)
Sat 08:47:43 AM -14.7069 136.2788 318° Northwest 489 563 37,900  Level Aus ATC (RADAR)
Sat 08:48:43 AM -14.6040 136.1861 319° Northwest 486 559 37,900  Level Aus ATC (RADAR)
Sat 08:49:52 AM -14.4854 136.0782 319° Northwest 484 557 37,900  Level Aus ATC (RADAR)
Sat 08:50:52 AM -14.3805 135.9858 320° Northwest 485 558 37,900  Level Aus ATC (RADAR)
Sat 08:51:57 AM -14.2683 135.8851 319° Northwest 488 562 37,900  Level Aus ATC (RADAR)
Sat 08:53:02 AM -14.1545 135.7858 320° Northwest 488 562 37,900  Level Aus ATC (RADAR)
Sat 08:54:02 AM -14.0565 135.6938 318° Northwest 480 552 37,900  Level Aus ATC (RADAR)
Sat 08:55:07 AM -13.9413 135.5935 320° Northwest 489 563 37,900  Level Aus ATC (RADAR)
Sat 08:56:12 AM -13.8220 135.5050 324° Northwest 479 551 37,900  Level Aus ATC (RADAR)
Sat 08:57:17 AM -13.7018 135.4156 324° Northwest 483 556 37,900  Level Aus ATC (RADAR)
Sat 08:58:17 AM -13.5922 135.3338 324° Northwest 480 552 37,900  Level Aus ATC (RADAR)
Sat 08:59:27 AM -13.4610 135.2373 324° Northwest 487 560 37,900  Level Aus ATC (RADAR)
Sat 09:00:26 AM -13.3425 135.1515 325° Northwest 502 578 37,900  Level Aus ATC (RADAR)
Sat 09:01:31 AM -13.2232 135.0629 324° Northwest 479 551 37,900  Level Aus ATC (RADAR)
Sat 09:02:36 AM -13.1035 134.9741 324° Northwest 481 554 37,900  Level Aus ATC (RADAR)
Sat 09:03:41 AM -12.9825 134.8845 324° Northwest 485 558 37,900  Level Aus ATC (RADAR)
Sat 09:04:46 AM -12.8630 134.7959 324° Northwest 481 554 37,900 67 Level Aus ATC (RADAR)
Sat 09:05:11 AM -12.8194 134.7625 324° Northwest 493 567 38,000  Climbing FlightAware ADS-B (EGBN / NQT)
Sat 09:05:46 AM -12.7523 134.7140 324° Northwest 482 555 37,900  Descending Aus ATC (RADAR)
Sat 09:05:50 AM -12.7496 134.7109 324° Northwest 491 565 38,000 92 Climbing FlightAware ADS-B (EGBN / NQT)
Sat 09:06:51 AM -12.6349 134.6263 324° Northwest 490 564 38,000  Level FlightAware ADS-B (EGBN / NQT)
Sat 09:07:31 AM -12.5646 134.5744 324° Northwest 489 563 38,000  Level FlightAware ADS-B (EGBN / NQT)
Sat 09:08:04 AM -12.5009 134.5275 324° Northwest 491 565 38,000  Level FlightAware ADS-B (EGBN / NQT)
Sat 09:08:51 AM -12.4144 134.4637 324° Northwest 490 564 38,000  Level FlightAware ADS-B (EGBN / NQT)
Sat 09:09:30 AM -12.3437 134.4117 324° Northwest 489 563 38,000 -86 Level FlightAware ADS-B (EGBN / NQT)
Sat 09:10:01 AM -12.2831 134.3681 324° Northwest 479 551 37,900  Descending Aus ATC (RADAR)
Sat 09:10:11 AM -12.2688 134.3567 324° Northwest 488 562 38,000 120 Climbing FlightAware ADS-B (EGBN / NQT)
Sat 09:10:51 AM -12.1935 134.3013 324° Northwest 489 563 38,000  Level FlightAware ADS-B (EGBN / NQT)
Sat 09:11:31 AM -12.1208 134.2480 324° Northwest 488 562 38,000 -80 Level FlightAware ADS-B (EGBN / NQT)
Sat 09:12:06 AM -12.0529 134.1991 324° Northwest 477 549 37,900  Descending Aus ATC (RADAR)
Sat 09:12:10 AM -12.0497 134.1958 324° Northwest 487 560 38,000 133 Climbing FlightAware ADS-B (EGBN / NQT)
Sat 09:12:51 AM -11.9730 134.1395 324° Northwest 487 560 38,000  Level FlightAware ADS-B (EGBN / NQT)
Sat 09:13:30 AM -11.9048 134.0895 324° Northwest 488 562 38,000  Level FlightAware ADS-B (EGBN / NQT)
Sat 09:14:11 AM -11.8294 134.0344 324° Northwest 489 563 38,000  Level FlightAware ADS-B (EGBN / NQT)
Sat 09:14:51 AM -11.7539 133.9792 324° Northwest 489 563 38,000  Level FlightAware ADS-B (EGBN / NQT)
Sat 09:15:31 AM -11.6794 133.9247 324° Northwest 491 565 38,000  Level FlightAware ADS-B (EGBN / NQT)
Sat 09:16:11 AM -11.6063 133.8713 324° Northwest 491 565 38,000  Level FlightAware ADS-B (EGBN / NQT)
Sat 09:16:51 AM -11.5336 133.8182 324° Northwest 493 567 38,000  Level FlightAware ADS-B (EGBN / NQT)
Sat 09:17:30 AM -11.4589 133.7637 324° Northwest 493 567 38,000  Level FlightAware ADS-B (EGBN / NQT)
Sat 09:18:10 AM -11.3866 133.7109 324° Northwest 492 566 38,000 -80 Level FlightAware ADS-B (EGBN / NQT)
Sat 09:18:45 AM -11.3160 133.6597 324° Northwest 478 550 37,900  Descending Aus ATC (RADAR)
Sat 09:19:11 AM -11.2718 133.6273 324° Northwest 493 567 38,000  Climbing FlightAware ADS-B (EGBN / NQT)
Sat 09:19:50 AM -11.1955 133.5717 324° Northwest 479 551 37,900  Descending Aus ATC (RADAR)
Sat 09:19:51 AM -11.1977 133.5733 324° Northwest 495 570 38,000 146 Climbing FlightAware ADS-B (EGBN / NQT)
Sat 09:20:31 AM -11.1254 133.5208 324° Northwest 498 573 38,000  Level FlightAware ADS-B (EGBN / NQT)
Sat 09:21:11 AM -11.0460 133.4630 324° Northwest 500 575 38,000  Level FlightAware ADS-B (EGBN / NQT)
Sat 09:21:51 AM -10.9723 133.4094 324° Northwest 502 578 38,000  Level FlightAware ADS-B (EGBN / NQT)
Sat 09:22:31 AM -10.8976 133.3552 324° Northwest 503 579 38,000  Level FlightAware ADS-B (EGBN / NQT)
Sat 09:23:11 AM -10.8189 133.2981 324° Northwest 505 581 38,000  Level FlightAware ADS-B (EGBN / NQT)
Sat 09:23:51 AM -10.7431 133.2431 324° Northwest 505 581 38,000  Level FlightAware ADS-B (EGBN / NQT)
Sat 09:24:31 AM -10.6674 133.1882 324° Northwest 504 580 38,000  Level FlightAware ADS-B (EGBN / NQT)
Sat 09:25:11 AM -10.5910 133.1329 324° Northwest 504 580 38,000  Level FlightAware ADS-B (EGBN / NQT)
Sat 09:25:51 AM -10.5152 133.0781 324° Northwest 505 581 38,000  Level FlightAware ADS-B (EGBN / NQT)
Sat 09:26:31 AM -10.4391 133.0230 324° Northwest 504 580 38,000  Level FlightAware ADS-B (EGBN / NQT)
Sat 09:27:11 AM -10.3623 132.9675 324° Northwest 503 579 38,000  Level FlightAware ADS-B (EGBN / NQT)
Sat 09:27:51 AM -10.2876 132.9135 324° Northwest 502 578 38,000  Level FlightAware ADS-B (EGBN / NQT)
Sat 09:28:31 AM -10.2132 132.8598 324° Northwest 500 575 38,000  Level FlightAware ADS-B (EGBN / NQT)
Sat 09:29:11 AM -10.1362 132.8042 324° Northwest 500 575 38,000 -82 Level FlightAware ADS-B (EGBN / NQT)
Sat 09:29:44 AM -10.0699 132.7548 324° Northwest 480 552 37,900  Descending Aus ATC (RADAR)
Sat 09:29:51 AM -10.0604 132.7496 325° Northwest 499 574 38,000 128 Climbing FlightAware ADS-B (EGBN / NQT)
Sat 09:30:31 AM -9.9865 132.6963 325° Northwest 499 574 38,000  Level FlightAware ADS-B (EGBN / NQT)
Sat 09:31:08 AM -9.9164 132.6458 325° Northwest 500 575 38,000  Level FlightAware ADS-B (EGBN / NQT)
Sat 09:31:51 AM -9.8340 132.5864 325° Northwest 501 577 38,000  Level FlightAware ADS-B (EGBN / NQT)
Sat 09:32:28 AM -9.7658 132.5373 324° Northwest 502 578 38,000  Level FlightAware ADS-B (EGBN / NQT)
Sat 09:33:10 AM -9.6876 132.4811 325° Northwest 503 579 38,000 -63 Level FlightAware ADS-B (EGBN / NQT)
Sat 09:34:04 AM -9.5791 132.4003 325° Northwest 485 558 37,900  Descending Aus ATC (RADAR)
Sat 09:34:11 AM -9.5704 132.3970 325° Northwest 503 579 38,000 133 Climbing FlightAware ADS-B (EGBN / NQT)
Sat 09:34:49 AM -9.4985 132.3453 325° Northwest 503 579 38,000  Level FlightAware ADS-B (EGBN / NQT)
Sat 09:35:40 AM -9.3993 132.2741 325° Northwest 503 579 38,000  Level FlightAware ADS-B (EGBN / NQT)
Sat 09:36:11 AM -9.3408 132.2322 325° Northwest 502 578 38,000  Level FlightAware ADS-B (EGBN / NQT)
Sat 09:36:44 AM -9.2765 132.1861 324° Northwest 504 580 38,000  Level FlightAware ADS-B (EGBN / NQT)
Sat 09:37:31 AM -9.1983 132.1300 325° Northwest 505 581 38,000  Level FlightAware ADS-B (EGBN / NQT)
Sat 09:38:11 AM -9.1121 132.0683 325° Northwest 503 579 38,000 -59 Level FlightAware ADS-B (EGBN / NQT)
Sat 09:39:13 AM -8.9909 131.9761 325° Northwest 486 559 37,900 -49 Descending Aus ATC (RADAR)
Sat 09:40:13 AM -8.8795 131.9008 326° Northwest 446 513 37,900  Level Aus ATC (RADAR)
Sat 09:41:23 AM -8.7452 131.7996 323° Northwest 492 566 37,900  Level Aus ATC (RADAR)
Sat 09:44:48 AM -8.3587 131.5253 325° Northwest 474 545 37,900  Level Aus ATC (RADAR)
Sat 09:45:18 AM -8.3030 131.4815 322° Northwest 487 560 37,900  Level Aus ATC (RADAR)
Sat 09:47:00 AM -8.1379 131.3701 326° Northwest  Level FlightAware Approximate
Sat 09:54:00 AM -7.4686 130.8966 325° Northwest  Level FlightAware Approximate
Sat 09:55:00 AM -7.3731 130.8289 325° Northwest  Level FlightAware Approximate
Sat 09:56:00 AM -7.2776 130.7611 325° Northwest  Level FlightAware Approximate
Sat 09:57:00 AM -7.1821 130.6934 325° Northwest  Level FlightAware Approximate
Sat 09:58:00 AM -7.0865 130.6258 325° Northwest  Level FlightAware Approximate
Sat 09:59:00 AM -6.9910 130.5581 325° Northwest  Level FlightAware Approximate
Sat 10:00:00 AM -6.8955 130.4905 325° Northwest  Level FlightAware Approximate
Sat 10:01:00 AM -6.7999 130.4229 325° Northwest  Level FlightAware Approximate
Sat 10:02:00 AM -6.7044 130.3554 325° Northwest  Level FlightAware Approximate
Sat 10:03:00 AM -6.6088 130.2878 325° Northwest  Level FlightAware Approximate
Sat 10:04:00 AM -6.5132 130.2203 325° Northwest  Level FlightAware Approximate
Sat 10:05:00 AM -6.4177 130.1528 325° Northwest  Level FlightAware Approximate
Sat 10:06:00 AM -6.3221 130.0854 325° Northwest  Level FlightAware Approximate
Sat 10:07:00 AM -6.2265 130.0179 325° Northwest  Level FlightAware Approximate
Sat 10:08:00 AM -6.1308 129.9505 325° Northwest  Level FlightAware Approximate
Sat 10:09:00 AM -6.0352 129.8831 325° Northwest  Level FlightAware Approximate
Sat 10:10:00 AM -5.9396 129.8158 325° Northwest  Level FlightAware Approximate
Sat 10:11:00 AM -5.8440 129.7484 325° Northwest  Level FlightAware Approximate
Sat 10:12:00 AM -5.7483 129.6811 325° Northwest  Level FlightAware Approximate
Sat 10:13:00 AM -5.6527 129.6138 325° Northwest  Level FlightAware Approximate
Sat 10:14:00 AM -5.5570 129.5466 325° Northwest  Level FlightAware Approximate
Sat 10:15:00 AM -5.4614 129.4793 325° Northwest  Level FlightAware Approximate
Sat 10:16:00 AM -5.3657 129.4121 325° Northwest  Level FlightAware Approximate
Sat 10:17:00 AM -5.2700 129.3449 325° Northwest  Level FlightAware Approximate
Sat 10:18:00 AM -5.1743 129.2777 325° Northwest  Level FlightAware Approximate
Sat 10:19:00 AM -5.0786 129.2106 325° Northwest  Level FlightAware Approximate
Sat 10:20:00 AM -4.9829 129.1434 325° Northwest  Level FlightAware Approximate
Sat 10:21:00 AM -4.8872 129.0763 325° Northwest  Level FlightAware Approximate
Sat 10:22:00 AM -4.7915 129.0092 325° Northwest  Level FlightAware Approximate
Sat 10:23:00 AM -4.6958 128.9421 325° Northwest  Level FlightAware Approximate
Sat 10:24:00 AM -4.6001 128.8750 325° Northwest  Level FlightAware Approximate
Sat 10:25:00 AM -4.5043 128.8080 325° Northwest  Level FlightAware Approximate
Sat 10:26:00 AM -4.4086 128.7410 325° Northwest  Level FlightAware Approximate
Sat 10:27:00 AM -4.3128 128.6739 325° Northwest  Level FlightAware Approximate
Sat 10:28:00 AM -4.2171 128.6069 325° Northwest  Level FlightAware Approximate
Sat 10:29:00 AM -4.1213 128.5400 325° Northwest  Level FlightAware Approximate
Sat 10:30:00 AM -4.0256 128.4730 325° Northwest  Level FlightAware Approximate
Sat 10:31:00 AM -3.9298 128.4061 325° Northwest  Level FlightAware Approximate
Sat 10:32:00 AM -3.8340 128.3391 325° Northwest  Level FlightAware Approximate
Sat 10:33:00 AM -3.7382 128.2722 325° Northwest  Level FlightAware Approximate
Sat 10:34:00 AM -3.6425 128.2053 325° Northwest  Level FlightAware Approximate
Sat 10:35:00 AM -3.5431 128.1440 330° Northwest  Level FlightAware Approximate
Sat 10:36:00 AM -3.4423 128.0849 330° Northwest  Level FlightAware Approximate
Sat 10:37:00 AM -3.3415 128.0259 330° Northwest  Level FlightAware Approximate
Sat 10:38:00 AM -3.2407 127.9669 330° Northwest  Level FlightAware Approximate
Sat 10:39:00 AM -3.1399 127.9078 330° Northwest  Level FlightAware Approximate
Sat 10:40:00 AM -3.0391 127.8488 330° Northwest  Level FlightAware Approximate
Sat 10:41:00 AM -2.9383 127.7898 330° Northwest  Level FlightAware Approximate
Sat 10:42:00 AM -2.8375 127.7309 330° Northwest  Level FlightAware Approximate
Sat 10:43:00 AM -2.7367 127.6719 330° Northwest  Level FlightAware Approximate
Sat 10:44:00 AM -2.6359 127.6129 330° Northwest  Level FlightAware Approximate
Sat 10:45:00 AM -2.5351 127.5540 330° Northwest  Level FlightAware Approximate
Sat 10:46:00 AM -2.4343 127.4950 330° Northwest  Level FlightAware Approximate
Sat 10:47:00 AM -2.3335 127.4361 330° Northwest  Level FlightAware Approximate
Sat 10:48:00 AM -2.2326 127.3772 330° Northwest  Level FlightAware Approximate
Sat 10:49:00 AM -2.1318 127.3183 330° Northwest  Level FlightAware Approximate
Sat 10:50:00 AM -2.0310 127.2593 330° Northwest  Level FlightAware Approximate
Sat 10:51:00 AM -1.9301 127.2004 330° Northwest  Level FlightAware Approximate
Sat 10:52:00 AM -1.8293 127.1415 330° Northwest  Level FlightAware Approximate
Sat 10:53:00 AM -1.7285 127.0826 330° Northwest  Level FlightAware Approximate
Sat 10:54:00 AM -1.6276 127.0238 330° Northwest  Level FlightAware Approximate
Sat 10:55:00 AM -1.5268 126.9649 330° Northwest  Level FlightAware Approximate
Sat 10:56:00 AM -1.4260 126.9060 330° Northwest  Level FlightAware Approximate
Sat 10:57:00 AM -1.3251 126.8472 330° Northwest  Level FlightAware Approximate
Sat 10:58:00 AM -1.2243 126.7883 330° Northwest  Level FlightAware Approximate
Sat 10:59:00 AM -1.1234 126.7294 330° Northwest  Level FlightAware Approximate
Sat 11:00:00 AM -1.0226 126.6706 330° Northwest  Level FlightAware Approximate
Sat 11:01:00 AM -0.9218 126.6117 330° Northwest  Level FlightAware Approximate
Sat 11:02:00 AM -0.8209 126.5529 330° Northwest  Level FlightAware Approximate
Sat 11:03:00 AM -0.7200 126.4940 330° Northwest  Level FlightAware Approximate
Sat 11:04:00 AM -0.6192 126.4352 330° Northwest  Level FlightAware Approximate
Sat 11:05:00 AM -0.5184 126.3764 330° Northwest  Level FlightAware Approximate
Sat 11:06:00 AM -0.4175 126.3175 330° Northwest  Level FlightAware Approximate
Sat 11:07:00 AM -0.3167 126.2587 330° Northwest  Level FlightAware Approximate
Sat 11:08:00 AM -0.2158 126.1999 330° Northwest  Level FlightAware Approximate
Sat 11:09:00 AM -0.1150 126.1410 330° Northwest  Level FlightAware Approximate
Sat 11:10:00 AM -0.0141 126.0822 330° Northwest  Level FlightAware Approximate
Sat 11:11:00 AM 0.0868 126.0234 330° Northwest  Level FlightAware Approximate
Sat 11:12:00 AM 0.1876 125.9645 330° Northwest  Level FlightAware Approximate
Sat 11:13:00 AM 0.2885 125.9057 330° Northwest  Level FlightAware Approximate
Sat 11:14:00 AM 0.3893 125.8468 330° Northwest  Level FlightAware Approximate
Sat 11:15:00 AM 0.4902 125.7880 330° Northwest  Level FlightAware Approximate
Sat 11:16:00 AM 0.5910 125.7292 330° Northwest  Level FlightAware Approximate
Sat 11:17:00 AM 0.6919 125.6703 330° Northwest  Level FlightAware Approximate
Sat 11:18:00 AM 0.7927 125.6115 330° Northwest  Level FlightAware Approximate
Sat 11:19:00 AM 0.8935 125.5526 330° Northwest  Level FlightAware Approximate
Sat 11:20:00 AM 0.9944 125.4938 330° Northwest  Level FlightAware Approximate
Sat 11:21:00 AM 1.0952 125.4349 330° Northwest  Level FlightAware Approximate
Sat 11:22:00 AM 1.1961 125.3761 330° Northwest  Level FlightAware Approximate
Sat 11:23:00 AM 1.2969 125.3172 330° Northwest  Level FlightAware Approximate
Sat 11:24:00 AM 1.3978 125.2584 330° Northwest  Level FlightAware Approximate
Sat 11:25:00 AM 1.4986 125.1995 330° Northwest  Level FlightAware Approximate
Sat 11:26:00 AM 1.5994 125.1406 330° Northwest  Level FlightAware Approximate
Sat 11:27:00 AM 1.7003 125.0817 330° Northwest  Level FlightAware Approximate
Sat 11:28:00 AM 1.8011 125.0228 330° Northwest  Level FlightAware Approximate
Sat 11:29:00 AM 1.9019 124.9639 330° Northwest  Level FlightAware Approximate
Sat 11:30:00 AM 2.0028 124.9050 330° Northwest  Level FlightAware Approximate
Sat 11:31:00 AM 2.1034 124.8457 329° Northwest  Level FlightAware Approximate
Sat 11:32:00 AM 2.2038 124.7861 329° Northwest  Level FlightAware Approximate
Sat 11:33:00 AM 2.3042 124.7265 329° Northwest  Level FlightAware Approximate
Sat 11:34:00 AM 2.4046 124.6669 329° Northwest  Level FlightAware Approximate
Sat 11:35:00 AM 2.5051 124.6073 329° Northwest  Level FlightAware Approximate
Sat 11:36:00 AM 2.6055 124.5477 329° Northwest  Level FlightAware Approximate
Sat 11:37:00 AM 2.7059 124.4881 329° Northwest  Level FlightAware Approximate
Sat 11:38:00 AM 2.8063 124.4284 329° Northwest  Level FlightAware Approximate
Sat 11:39:00 AM 2.9067 124.3688 329° Northwest  Level FlightAware Approximate
Sat 11:40:00 AM 3.0071 124.3091 329° Northwest  Level FlightAware Approximate
Sat 11:41:00 AM 3.1075 124.2494 329° Northwest  Level FlightAware Approximate
Sat 11:42:00 AM 3.2080 124.1897 329° Northwest  Level FlightAware Approximate
Sat 11:43:00 AM 3.3083 124.1300 329° Northwest  Level FlightAware Approximate
Sat 11:44:00 AM 3.4087 124.0703 329° Northwest  Level FlightAware Approximate
Sat 11:45:00 AM 3.5091 124.0106 329° Northwest  Level FlightAware Approximate
Sat 11:46:00 AM 3.6095 123.9509 329° Northwest  Level FlightAware Approximate
Sat 11:47:00 AM 3.7099 123.8911 329° Northwest  Level FlightAware Approximate
Sat 11:48:00 AM 3.8103 123.8313 329° Northwest  Level FlightAware Approximate
Sat 11:49:00 AM 3.9107 123.7716 329° Northwest  Level FlightAware Approximate
Sat 11:50:00 AM 4.0112 123.7120 331° Northwest  Level FlightAware Approximate
Sat 11:51:00 AM 4.1129 123.6545 331° Northwest  Level FlightAware Approximate
Sat 11:52:00 AM 4.2145 123.5969 331° Northwest  Level FlightAware Approximate
Sat 11:53:00 AM 4.3162 123.5394 331° Northwest  Level FlightAware Approximate
Sat 11:54:00 AM 4.4179 123.4818 331° Northwest  Level FlightAware Approximate
Sat 11:55:00 AM 4.5195 123.4242 331° Northwest  Level FlightAware Approximate
Sat 11:56:00 AM 4.6212 123.3666 331° Northwest  Level FlightAware Approximate
Sat 11:57:00 AM 4.7229 123.3090 331° Northwest  Level FlightAware Approximate
Sat 11:58:00 AM 4.8245 123.2514 331° Northwest  Level FlightAware Approximate
Sat 11:59:00 AM 4.9262 123.1937 331° Northwest  Level FlightAware Approximate
Sat 12:00:00 PM 5.0278 123.1361 331° Northwest  Level FlightAware Approximate
Sat 12:01:00 PM 5.1294 123.0784 331° Northwest  Level FlightAware Approximate
Sat 12:02:00 PM 5.2311 123.0207 331° Northwest  Level FlightAware Approximate
Sat 12:03:00 PM 5.3327 122.9629 331° Northwest  Level FlightAware Approximate
Sat 12:04:00 PM 5.4343 122.9052 331° Northwest  Level FlightAware Approximate
Sat 12:05:00 PM 5.5359 122.8474 330° Northwest  Level FlightAware Approximate
Sat 12:06:00 PM 5.6375 122.7896 330° Northwest  Level FlightAware Approximate
Sat 12:07:00 PM 5.7392 122.7318 330° Northwest  Level FlightAware Approximate
Sat 12:08:00 PM 5.8408 122.6740 330° Northwest  Level FlightAware Approximate
Sat 12:09:00 PM 5.9423 122.6162 330° Northwest  Level FlightAware Approximate
Sat 12:10:00 PM 6.0439 122.5583 330° Northwest  Level FlightAware Approximate
Sat 12:11:00 PM 6.1455 122.5004 330° Northwest  Level FlightAware Approximate
Sat 12:12:00 PM 6.2471 122.4425 330° Northwest  Level FlightAware Approximate
Sat 12:13:00 PM 6.3487 122.3846 330° Northwest  Level FlightAware Approximate
Sat 12:14:00 PM 6.4502 122.3266 330° Northwest  Level FlightAware Approximate
Sat 12:15:00 PM 6.5518 122.2686 330° Northwest  Level FlightAware Approximate
Sat 12:16:00 PM 6.6533 122.2106 330° Northwest  Level FlightAware Approximate
Sat 12:17:00 PM 6.7549 122.1526 330° Northwest  Level FlightAware Approximate
Sat 12:18:00 PM 6.8564 122.0945 330° Northwest  Level FlightAware Approximate
Sat 12:19:00 PM 6.9591 122.0386 334° Northwest  Level FlightAware Approximate
Sat 12:20:00 PM 7.0640 121.9870 334° Northwest  Level FlightAware Approximate
Sat 12:21:00 PM 7.1689 121.9354 334° Northwest  Level FlightAware Approximate
Sat 12:22:00 PM 7.2738 121.8837 334° Northwest  Level FlightAware Approximate
Sat 12:23:00 PM 7.3787 121.8321 334° Northwest  Level FlightAware Approximate
Sat 12:24:00 PM 7.4837 121.7805 334° Northwest  Level FlightAware Approximate
Sat 12:25:00 PM 7.5886 121.7288 334° Northwest  Level FlightAware Approximate
Sat 12:26:00 PM 7.6935 121.6771 334° Northwest  Level FlightAware Approximate
Sat 12:27:00 PM 7.7984 121.6254 334° Northwest  Level FlightAware Approximate
Sat 12:28:00 PM 7.9033 121.5737 334° Northwest  Level FlightAware Approximate
Sat 12:29:00 PM 8.0083 121.5219 334° Northwest  Level FlightAware Approximate
Sat 12:30:00 PM 8.1131 121.4701 334° Northwest  Level FlightAware Approximate
Sat 12:31:00 PM 8.2180 121.4183 334° Northwest  Level FlightAware Approximate
Sat 12:32:00 PM 8.3229 121.3665 334° Northwest  Level FlightAware Approximate
Sat 12:33:00 PM 8.4278 121.3146 334° Northwest  Level FlightAware Approximate
Sat 12:34:00 PM 8.5326 121.2627 334° Northwest  Level FlightAware Approximate
Sat 12:35:00 PM 8.6375 121.2108 334° Northwest  Level FlightAware Approximate
Sat 12:36:00 PM 8.7424 121.1588 334° Northwest  Level FlightAware Approximate
Sat 12:37:00 PM 8.8472 121.1068 334° Northwest  Level FlightAware Approximate
Sat 12:38:00 PM 8.9521 121.0548 334° Northwest  Level FlightAware Approximate
Sat 12:39:00 PM 9.0569 121.0028 334° Northwest  Level FlightAware Approximate
Sat 12:40:00 PM 9.1617 120.9507 334° Northwest  Level FlightAware Approximate
Sat 12:41:00 PM 9.2665 120.8986 334° Northwest  Level FlightAware Approximate
Sat 12:42:00 PM 9.3713 120.8465 334° Northwest  Level FlightAware Approximate
Sat 12:43:00 PM 9.4761 120.7943 334° Northwest  Level FlightAware Approximate
Sat 12:44:00 PM 9.5809 120.7421 334° Northwest  Level FlightAware Approximate
Sat 12:45:00 PM 9.6857 120.6898 334° Northwest  Level FlightAware Approximate
Sat 12:46:00 PM 9.7905 120.6376 334° Northwest  Level FlightAware Approximate
Sat 12:47:00 PM 9.8953 120.5853 334° Northwest  Level FlightAware Approximate
Sat 12:48:00 PM 10.0000 120.5330 334° Northwest  Level FlightAware Approximate
Sat 12:49:00 PM 10.1048 120.4806 334° Northwest  Level FlightAware Approximate
Sat 12:50:00 PM 10.2095 120.4282 334° Northwest  Level FlightAware Approximate
Sat 12:51:00 PM 10.3142 120.3756 334° Northwest  Level FlightAware Approximate
Sat 12:52:00 PM 10.4189 120.3230 334° Northwest  Level FlightAware Approximate
Sat 12:53:00 PM 10.5235 120.2704 334° Northwest  Level FlightAware Approximate
Sat 12:54:00 PM 10.6282 120.2177 334° Northwest  Level FlightAware Approximate
Sat 12:55:00 PM 10.7328 120.1649 334° Northwest  Level FlightAware Approximate
Sat 12:56:00 PM 10.8374 120.1122 334° Northwest  Level FlightAware Approximate
Sat 12:57:00 PM 10.9420 120.0594 334° Northwest  Level FlightAware Approximate
Sat 12:58:00 PM 11.0466 120.0065 334° Northwest  Level FlightAware Approximate
Sat 12:59:00 PM 11.1512 119.9536 334° Northwest  Level FlightAware Approximate
Sat 01:00:00 PM 11.2557 119.9006 334° Northwest  Level FlightAware Approximate
Sat 01:01:00 PM 11.3603 119.8476 334° Northwest  Level FlightAware Approximate
Sat 01:02:00 PM 11.4648 119.7945 334° Northwest  Level FlightAware Approximate
Sat 01:03:00 PM 11.5693 119.7414 334° Northwest  Level FlightAware Approximate
Sat 01:04:00 PM 11.6738 119.6883 334° Northwest  Level FlightAware Approximate
Sat 01:05:00 PM 11.7784 119.6352 334° Northwest  Level FlightAware Approximate
Sat 01:06:00 PM 11.8830 119.5821 334° Northwest  Level FlightAware Approximate
Sat 01:07:00 PM 11.9875 119.5290 334° Northwest  Level FlightAware Approximate
Sat 01:08:00 PM 12.0921 119.4759 334° Northwest  Level FlightAware Approximate
Sat 01:09:00 PM 12.1966 119.4227 334° Northwest  Level FlightAware Approximate
Sat 01:10:00 PM 12.3012 119.3695 334° Northwest  Level FlightAware Approximate
Sat 01:11:00 PM 12.4057 119.3162 334° Northwest  Level FlightAware Approximate
Sat 01:12:00 PM 12.5102 119.2629 334° Northwest  Level FlightAware Approximate
Sat 01:13:00 PM 12.6147 119.2095 334° Northwest  Level FlightAware Approximate
Sat 01:14:00 PM 12.7192 119.1561 334° Northwest  Level FlightAware Approximate
Sat 01:15:00 PM 12.8236 119.1027 333° Northwest  Level FlightAware Approximate
Sat 01:16:00 PM 12.9281 119.0492 333° Northwest  Level FlightAware Approximate
Sat 01:17:00 PM 13.0326 118.9957 333° Northwest  Level FlightAware Approximate
Sat 01:18:00 PM 13.1370 118.9421 333° Northwest  Level FlightAware Approximate
Sat 01:19:00 PM 13.2414 118.8885 333° Northwest  Level FlightAware Approximate
Sat 01:20:00 PM 13.3459 118.8348 333° Northwest  Level FlightAware Approximate
Sat 01:21:00 PM 13.4503 118.7811 333° Northwest  Level FlightAware Approximate
Sat 01:22:00 PM 13.5547 118.7273 333° Northwest  Level FlightAware Approximate
Sat 01:23:00 PM 13.6591 118.6735 333° Northwest  Level FlightAware Approximate
Sat 01:24:00 PM 13.7634 118.6196 333° Northwest  Level FlightAware Approximate
Sat 01:25:00 PM 13.8678 118.5657 333° Northwest  Level FlightAware Approximate
Sat 01:26:00 PM 13.9721 118.5118 333° Northwest  Level FlightAware Approximate
Sat 01:27:00 PM 14.0765 118.4577 333° Northwest  Level FlightAware Approximate
Sat 01:28:00 PM 14.1808 118.4037 333° Northwest  Level FlightAware Approximate
Sat 01:29:00 PM 14.2851 118.3496 333° Northwest  Level FlightAware Approximate
Sat 01:30:00 PM 14.3894 118.2954 333° Northwest  Level FlightAware Approximate
Sat 01:31:00 PM 14.4937 118.2412 333° Northwest  Level FlightAware Approximate
Sat 01:32:00 PM 14.5980 118.1870 333° Northwest  Level FlightAware Approximate
Sat 01:33:00 PM 14.7023 118.1327 333° Northwest  Level FlightAware Approximate
Sat 01:34:00 PM 14.8065 118.0783 333° Northwest  Level FlightAware Approximate
Sat 01:35:00 PM 14.9108 118.0239 333° Northwest  Level FlightAware Approximate
Sat 01:36:00 PM 15.0150 117.9694 333° Northwest  Level FlightAware Approximate
Sat 01:37:00 PM 15.1192 117.9149 333° Northwest  Level FlightAware Approximate
Sat 01:38:00 PM 15.2234 117.8603 333° Northwest  Level FlightAware Approximate
Sat 01:39:00 PM 15.3276 117.8057 333° Northwest  Level FlightAware Approximate
Sat 01:40:00 PM 15.4318 117.7510 333° Northwest  Level FlightAware Approximate
Sat 01:41:00 PM 15.5359 117.6963 333° Northwest  Level FlightAware Approximate
Sat 01:41:56 PM 19.2882 115.8707 North 471 542 38,000  Level FlightAware ADS-B
Sat 02:06:21 PM 22.4561 116.1451 North 471 542 39,000 40 Climbing FlightAware ADS-B
Sat 02:06:57 PM 22.5380 116.1523 North 472 543 39,000  Level FlightAware ADS-B
Sat 02:07:00 PM 22.1588 116.1732 360° North  Level FlightAware Approximate
Sat 02:07:39 PM 22.6297 116.1631 North 477 549 39,000  Level FlightAware ADS-B
Sat 02:08:08 PM 22.6896 116.1798 21° North 492 566 39,000 102 Level FlightAware ADS-B
Sat 02:08:38 PM 22.7525 116.2079 28° Northeast 501 577 39,100 11 Climbing FlightAware ADS-B
Sat 02:17:13 PM 23.6879 117.0482 46° Northeast 516 594 39,100  Level FlightAware ADS-B
Sat 02:18:44 PM 23.8390 117.2194 46° Northeast 519 597 39,100  Level FlightAware ADS-B
Sat 02:19:18 PM 23.8959 117.2835 46° Northeast 520 598 39,100  Level FlightAware ADS-B
Sat 02:21:00 PM 24.0457 117.4260 41° Northeast  Level FlightAware Approximate
Sat 02:22:00 PM 24.1338 117.5099 41° Northeast  Level FlightAware Approximate
Sat 02:23:00 PM 24.2219 117.5939 41° Northeast  Level FlightAware Approximate
Sat 02:24:00 PM 24.3099 117.6781 41° Northeast  Level FlightAware Approximate
Sat 02:25:00 PM 24.3978 117.7624 41° Northeast  Level FlightAware Approximate
Sat 02:26:00 PM 24.4857 117.8468 41° Northeast  Level FlightAware Approximate
Sat 02:27:00 PM 24.5736 117.9313 41° Northeast  Level FlightAware Approximate
Sat 02:28:00 PM 24.6614 118.0160 41° Northeast  Level FlightAware Approximate
Sat 02:29:00 PM 24.7492 118.1007 41° Northeast  Level FlightAware Approximate
Sat 02:30:00 PM 24.8369 118.1856 41° Northeast  Level FlightAware Approximate
Sat 02:31:00 PM 24.9246 118.2706 41° Northeast  Level FlightAware Approximate
Sat 02:32:00 PM 25.0122 118.3557 41° Northeast  Level FlightAware Approximate
Sat 02:33:00 PM 25.0998 118.4409 41° Northeast  Level FlightAware Approximate
Sat 02:34:00 PM 25.1873 118.5263 41° Northeast  Level FlightAware Approximate
Sat 02:35:00 PM 25.2748 118.6118 41° Northeast  Level FlightAware Approximate
Sat 02:36:00 PM 25.3622 118.6974 41° Northeast  Level FlightAware Approximate
Sat 02:37:00 PM 25.4496 118.7831 42° Northeast  Level FlightAware Approximate
Sat 02:38:00 PM 25.5369 118.8690 42° Northeast  Level FlightAware Approximate
Sat 02:39:00 PM 25.6242 118.9550 42° Northeast  Level FlightAware Approximate
Sat 02:40:00 PM 25.7114 119.0411 42° Northeast  Level FlightAware Approximate
Sat 02:41:00 PM 25.7986 119.1273 42° Northeast  Level FlightAware Approximate
Sat 02:42:00 PM 25.8857 119.2137 42° Northeast  Level FlightAware Approximate
Sat 02:43:00 PM 25.9728 119.3002 42° Northeast  Level FlightAware Approximate
Sat 02:44:00 PM 26.0598 119.3868 42° Northeast  Level FlightAware Approximate
Sat 02:45:00 PM 26.1468 119.4735 42° Northeast  Level FlightAware Approximate
Sat 02:46:00 PM 26.2200 119.5467 41° Northeast  Level FlightAware Approximate
Sat 02:47:00 PM 26.3288 119.5939 41° Northeast  Level Estimated
Sat 02:48:00 PM 26.2200 119.5467 41° Northeast  Level FlightAware Approximate
Sat 02:49:00 PM 26.3288 119.5939 41° Northeast  Level Estimated
Sat 02:50:00 PM 26.2200 119.5467 41° Northeast  Level FlightAware Approximate
Sat 02:51:00 PM 26.3288 119.5939 41° Northeast  Level Estimated
Sat 02:52:00 PM 26.2200 119.5467 41° Northeast  Level FlightAware Approximate
Sat 02:53:00 PM 26.3288 119.5939 41° Northeast  Level Estimated
Sat 02:54:00 PM 26.2200 119.5467 41° Northeast  Level FlightAware Approximate
Sat 02:55:00 PM 26.3288 119.5939 41° Northeast  Level Estimated
Sat 02:56:00 PM 26.2200 119.5467 41° Northeast  Level FlightAware Approximate
Sat 02:57:00 PM 26.3288 119.5939 41° Northeast  Level Estimated
Sat 02:58:00 PM 26.2200 119.5467 41° Northeast  Level FlightAware Approximate
Sat 02:59:00 PM 26.3288 119.5939 41° Northeast  Level Estimated
Sat 03:00:00 PM 26.2200 119.5467 41° Northeast  Level FlightAware Approximate
Sat 03:01:00 PM 26.3288 119.5939 41° Northeast  Level Estimated
Sat 03:02:00 PM 26.2200 119.5467 41° Northeast  Level FlightAware Approximate
Sat 03:03:00 PM 26.3288 119.5939 41° Northeast  Level Estimated
Sat 03:04:00 PM 26.2200 119.5467 41° Northeast  Level FlightAware Approximate
Sat 03:05:00 PM 26.3288 119.5939 41° Northeast  Level Estimated
Sat 03:06:00 PM 26.2200 119.5467 41° Northeast  Level FlightAware Approximate
Sat 03:07:00 PM 26.3288 119.5939 41° Northeast  Level Estimated
Sat 03:08:00 PM 26.2200 119.5467 41° Northeast  Level FlightAware Approximate
Sat 03:09:00 PM 26.3288 119.5939 41° Northeast  Level Estimated
Sat 03:10:00 PM 26.2200 119.5467 41° Northeast  Level FlightAware Approximate
Sat 03:11:00 PM 26.3288 119.5939 41° Northeast  Level Estimated
Sat 03:12:00 PM 26.2200 119.5467 41° Northeast  Level FlightAware Approximate
Sat 03:13:00 PM 26.3288 119.5939 41° Northeast  Level Estimated
Sat 03:14:00 PM 26.2200 119.5467 41° Northeast  Level FlightAware Approximate
Sat 03:15:00 PM 26.3288 119.5939 41° Northeast  Level Estimated
Sat 03:16:00 PM 26.2200 119.5467 41° Northeast  Level FlightAware Approximate
Sat 03:17:00 PM 26.3288 119.5939 41° Northeast  Level Estimated
Sat 03:18:00 PM 26.2200 119.5467 41° Northeast  Level FlightAware Approximate
Sat 03:19:00 PM 26.3288 119.5939 41° Northeast  Level Estimated
Sat 03:20:00 PM 26.2200 119.5467 41° Northeast  Level FlightAware Approximate
Sat 03:21:00 PM 26.3288 119.5939 41° Northeast  Level Estimated
Sat 03:22:00 PM 26.2200 119.5467 41° Northeast  Level FlightAware Approximate
Sat 03:23:00 PM 26.3288 119.5939 41° Northeast  Level Estimated
Sat 03:24:00 PM 26.2200 119.5467 41° Northeast  Level FlightAware Approximate
Sat 03:25:00 PM 26.3288 119.5939 41° Northeast  Level Estimated
Sat 03:26:00 PM 26.2200 119.5467 41° Northeast  Level FlightAware Approximate
Sat 03:27:00 PM 26.3288 119.5939 41° Northeast  Level Estimated
Sat 03:28:00 PM 26.2200 119.5467 41° Northeast  Level FlightAware Approximate
Sat 03:29:00 PM 26.3288 119.5939 41° Northeast  Level Estimated
Sat 03:30:00 PM 26.2200 119.5467 41° Northeast  Level FlightAware Approximate
Sat 03:31:00 PM 26.3288 119.5939 41° Northeast  Level Estimated
Sat 03:32:00 PM 26.2200 119.5467 41° Northeast  Level FlightAware Approximate
Sat 03:33:00 PM 26.3288 119.5939 41° Northeast  Level Estimated
Sat 03:34:00 PM 26.2200 119.5467 41° Northeast  Level FlightAware Approximate
Sat 03:35:00 PM 26.3288 119.5939 41° Northeast  Level Estimated
Sat 03:36:00 PM 26.2200 119.5467 41° Northeast  Level FlightAware Approximate
Sat 03:37:00 PM 26.3288 119.5939 41° Northeast  Level Estimated
Sat 03:38:00 PM 26.2200 119.5467 41° Northeast  Level FlightAware Approximate
Sat 03:39:00 PM 26.3288 119.5939 41° Northeast  Level Estimated
Sat 03:40:00 PM 26.2200 119.5467 41° Northeast  Level FlightAware Approximate
Sat 03:41:00 PM 26.3288 119.5939 41° Northeast  Level Estimated
Sat 03:42:00 PM 26.2200 119.5467 41° Northeast  Level FlightAware Approximate
Sat 03:43:00 PM 26.3288 119.5939 41° Northeast  Level Estimated
Sat 03:44:00 PM 26.2200 119.5467 41° Northeast  Level FlightAware Approximate
Sat 03:45:00 PM 26.3288 119.5939 41° Northeast  Level Estimated
Sat 03:46:00 PM 26.2200 119.5467 41° Northeast  Level FlightAware Approximate
Sat 03:47:00 PM 26.3288 119.5939 41° Northeast  Level Estimated
Sat 03:48:00 PM 26.2200 119.5467 41° Northeast  Level FlightAware Approximate
Sat 03:49:00 PM 26.3288 119.5939 41° Northeast  Level Estimated
Sat 03:50:00 PM 26.2200 119.5467 41° Northeast  Level FlightAware Approximate
Sat 03:51:00 PM 26.3288 119.5939 41° Northeast  Level Estimated
Sat 03:52:00 PM 26.2200 119.5467 41° Northeast  Level FlightAware Approximate
Sat 03:53:00 PM 26.3288 119.5939 41° Northeast  Level Estimated
Sat 03:54:00 PM 26.2200 119.5467 41° Northeast  Level FlightAware Approximate
Sat 03:55:00 PM 26.3288 119.5939 41° Northeast  Level Estimated

Login

Don't have an account? Register now (free) for customized features, flight alerts, and more!